sensor_id;sensor_type;location;lat;lon;timestamp;pressure;altitude;pressure_sealevel;temperature;humidity
48404;BME280;34202;52.536;6.042;2023-03-16T00:03:54;101926.01;;;3.03;76.83
48404;BME280;34202;52.536;6.042;2023-03-16T00:08:55;101921.88;;;3.04;76.97
48404;BME280;34202;52.536;6.042;2023-03-16T00:13:58;101921.31;;;3.02;77.11
48404;BME280;34202;52.536;6.042;2023-03-16T00:18:58;101925.40;;;3.02;77.24
48404;BME280;34202;52.536;6.042;2023-03-16T00:23:58;101927.64;;;3.02;77.38
48404;BME280;34202;52.536;6.042;2023-03-16T00:28:59;101924.35;;;3.01;77.73
48404;BME280;34202;52.536;6.042;2023-03-16T00:34:00;101922.51;;;3.02;77.76
48404;BME280;34202;52.536;6.042;2023-03-16T00:39:01;101917.17;;;3.02;77.93
48404;BME280;34202;52.536;6.042;2023-03-16T00:44:04;101903.80;;;3.03;78.21
48404;BME280;34202;52.536;6.042;2023-03-16T00:49:05;101888.21;;;3.04;78.71
48404;BME280;34202;52.536;6.042;2023-03-16T00:54:05;101880.23;;;3.06;78.86
48404;BME280;34202;52.536;6.042;2023-03-16T00:59:06;101874.50;;;3.08;78.92
48404;BME280;34202;52.536;6.042;2023-03-16T01:04:08;101866.34;;;3.10;79.49
48404;BME280;34202;52.536;6.042;2023-03-16T01:09:08;101858.31;;;3.11;79.48
48404;BME280;34202;52.536;6.042;2023-03-16T01:14:09;101860.44;;;3.12;79.63
48404;BME280;34202;52.536;6.042;2023-03-16T01:19:13;101852.61;;;3.14;79.73
48404;BME280;34202;52.536;6.042;2023-03-16T01:24:14;101844.05;;;3.15;79.67
48404;BME280;34202;52.536;6.042;2023-03-16T01:29:14;101837.61;;;3.17;80.06
48404;BME280;34202;52.536;6.042;2023-03-16T01:34:15;101833.19;;;3.18;79.95
48404;BME280;34202;52.536;6.042;2023-03-16T01:39:17;101823.48;;;3.19;79.98
48404;BME280;34202;52.536;6.042;2023-03-16T01:44:23;101812.17;;;3.20;80.12
48404;BME280;34202;52.536;6.042;2023-03-16T01:49:32;101802.23;;;3.21;80.13
48404;BME280;34202;52.536;6.042;2023-03-16T01:54:38;101795.63;;;3.23;80.32
48404;BME280;34202;52.536;6.042;2023-03-16T01:59:45;101796.72;;;3.24;80.67
48404;BME280;34202;52.536;6.042;2023-03-16T02:10:04;101799.33;;;3.28;81.08
48404;BME280;34202;52.536;6.042;2023-03-16T02:15:06;101790.33;;;3.30;80.80
48404;BME280;34202;52.536;6.042;2023-03-16T02:20:16;101791.29;;;3.33;81.11
48404;BME280;34202;52.536;6.042;2023-03-16T02:25:23;101781.75;;;3.34;81.37
48404;BME280;34202;52.536;6.042;2023-03-16T02:30:24;101766.89;;;3.37;81.57
48404;BME280;34202;52.536;6.042;2023-03-16T02:35:25;101757.56;;;3.39;81.64
48404;BME280;34202;52.536;6.042;2023-03-16T02:40:28;101755.83;;;3.42;81.80
48404;BME280;34202;52.536;6.042;2023-03-16T02:45:34;101753.53;;;3.45;81.96
48404;BME280;34202;52.536;6.042;2023-03-16T02:50:35;101747.52;;;3.48;82.11
48404;BME280;34202;52.536;6.042;2023-03-16T02:55:41;101746.98;;;3.51;82.11
48404;BME280;34202;52.536;6.042;2023-03-16T03:00:42;101745.75;;;3.54;82.04
48404;BME280;34202;52.536;6.042;2023-03-16T03:05:42;101744.67;;;3.57;82.08
48404;BME280;34202;52.536;6.042;2023-03-16T03:10:43;101738.39;;;3.58;82.14
48404;BME280;34202;52.536;6.042;2023-03-16T03:15:43;101737.08;;;3.60;82.12
48404;BME280;34202;52.536;6.042;2023-03-16T03:20:44;101730.98;;;3.62;82.34
48404;BME280;34202;52.536;6.042;2023-03-16T03:25:45;101727.95;;;3.63;82.46
48404;BME280;34202;52.536;6.042;2023-03-16T03:30:47;101714.96;;;3.65;82.47
48404;BME280;34202;52.536;6.042;2023-03-16T03:35:53;101709.55;;;3.67;82.28
48404;BME280;34202;52.536;6.042;2023-03-16T03:40:54;101702.38;;;3.68;82.63
48404;BME280;34202;52.536;6.042;2023-03-16T03:45:59;101691.55;;;3.69;82.51
48404;BME280;34202;52.536;6.042;2023-03-16T03:51:01;101685.58;;;3.70;82.61
48404;BME280;34202;52.536;6.042;2023-03-16T03:56:01;101680.30;;;3.71;82.60
48404;BME280;34202;52.536;6.042;2023-03-16T04:01:01;101683.44;;;3.72;82.76
48404;BME280;34202;52.536;6.042;2023-03-16T04:06:02;101688.98;;;3.73;82.96
48404;BME280;34202;52.536;6.042;2023-03-16T04:11:02;101694.00;;;3.73;82.85
48404;BME280;34202;52.536;6.042;2023-03-16T04:16:03;101688.00;;;3.74;83.10
48404;BME280;34202;52.536;6.042;2023-03-16T04:21:10;101687.65;;;3.74;83.22
48404;BME280;34202;52.536;6.042;2023-03-16T04:26:11;101684.23;;;3.74;83.29
48404;BME280;34202;52.536;6.042;2023-03-16T04:31:12;101681.28;;;3.74;83.21
48404;BME280;34202;52.536;6.042;2023-03-16T04:36:13;101666.98;;;3.74;83.53
48404;BME280;34202;52.536;6.042;2023-03-16T04:41:13;101661.31;;;3.74;83.49
48404;BME280;34202;52.536;6.042;2023-03-16T04:46:14;101658.21;;;3.74;83.68
48404;BME280;34202;52.536;6.042;2023-03-16T04:51:14;101663.42;;;3.75;83.85
48404;BME280;34202;52.536;6.042;2023-03-16T04:56:15;101655.10;;;3.74;83.89
48404;BME280;34202;52.536;6.042;2023-03-16T05:01:17;101646.06;;;3.72;83.74
48404;BME280;34202;52.536;6.042;2023-03-16T05:06:17;101650.27;;;3.70;84.18
48404;BME280;34202;52.536;6.042;2023-03-16T05:11:18;101647.64;;;3.68;84.05
48404;BME280;34202;52.536;6.042;2023-03-16T05:16:18;101644.52;;;3.68;84.16
48404;BME280;34202;52.536;6.042;2023-03-16T05:21:19;101640.70;;;3.67;84.40
48404;BME280;34202;52.536;6.042;2023-03-16T05:26:19;101634.50;;;3.67;84.68
48404;BME280;34202;52.536;6.042;2023-03-16T05:31:20;101636.41;;;3.67;84.54
48404;BME280;34202;52.536;6.042;2023-03-16T05:36:20;101637.95;;;3.67;84.80
48404;BME280;34202;52.536;6.042;2023-03-16T05:41:20;101642.25;;;3.67;84.78
48404;BME280;34202;52.536;6.042;2023-03-16T05:46:22;101647.07;;;3.67;84.98
48404;BME280;34202;52.536;6.042;2023-03-16T05:51:22;101648.84;;;3.68;85.08
48404;BME280;34202;52.536;6.042;2023-03-16T05:56:26;101638.54;;;3.69;85.38
48404;BME280;34202;52.536;6.042;2023-03-16T06:01:27;101625.30;;;3.70;85.44
48404;BME280;34202;52.536;6.042;2023-03-16T06:06:27;101618.62;;;3.70;85.57
48404;BME280;34202;52.536;6.042;2023-03-16T06:11:28;101621.27;;;3.72;85.75
48404;BME280;34202;52.536;6.042;2023-03-16T06:16:28;101624.09;;;3.73;85.86
48404;BME280;34202;52.536;6.042;2023-03-16T06:21:29;101616.24;;;3.75;86.06
48404;BME280;34202;52.536;6.042;2023-03-16T06:26:29;101618.25;;;3.77;85.94
48404;BME280;34202;52.536;6.042;2023-03-16T06:31:30;101615.23;;;3.79;86.04
48404;BME280;34202;52.536;6.042;2023-03-16T06:36:33;101615.69;;;3.81;86.11
48404;BME280;34202;52.536;6.042;2023-03-16T06:41:33;101614.05;;;3.83;86.23
48404;BME280;34202;52.536;6.042;2023-03-16T06:46:34;101610.58;;;3.86;86.27
48404;BME280;34202;52.536;6.042;2023-03-16T06:51:35;101607.80;;;3.90;86.62
48404;BME280;34202;52.536;6.042;2023-03-16T06:56:35;101603.81;;;3.93;86.60
48404;BME280;34202;52.536;6.042;2023-03-16T07:01:36;101603.14;;;3.97;86.70
48404;BME280;34202;52.536;6.042;2023-03-16T07:06:36;101605.66;;;3.99;87.08
48404;BME280;34202;52.536;6.042;2023-03-16T07:11:37;101604.24;;;4.02;87.46
48404;BME280;34202;52.536;6.042;2023-03-16T07:16:37;101607.23;;;4.07;87.73
48404;BME280;34202;52.536;6.042;2023-03-16T07:21:38;101608.63;;;4.11;88.04
48404;BME280;34202;52.536;6.042;2023-03-16T07:26:40;101604.34;;;4.16;87.97
48404;BME280;34202;52.536;6.042;2023-03-16T07:31:42;101613.98;;;4.20;88.14
48404;BME280;34202;52.536;6.042;2023-03-16T07:36:42;101618.77;;;4.26;88.51
48404;BME280;34202;52.536;6.042;2023-03-16T07:41:43;101615.16;;;4.30;88.79
48404;BME280;34202;52.536;6.042;2023-03-16T07:46:43;101611.32;;;4.33;88.84
48404;BME280;34202;52.536;6.042;2023-03-16T07:51:44;101609.52;;;4.35;89.16
48404;BME280;34202;52.536;6.042;2023-03-16T07:56:44;101613.42;;;4.38;89.53
48404;BME280;34202;52.536;6.042;2023-03-16T08:01:44;101614.06;;;4.40;90.02
48404;BME280;34202;52.536;6.042;2023-03-16T08:06:45;101609.20;;;4.44;90.32
48404;BME280;34202;52.536;6.042;2023-03-16T08:11:46;101606.27;;;4.48;90.80
48404;BME280;34202;52.536;6.042;2023-03-16T08:16:47;101601.67;;;4.53;91.23
48404;BME280;34202;52.536;6.042;2023-03-16T08:21:47;101601.72;;;4.58;91.38
48404;BME280;34202;52.536;6.042;2023-03-16T08:26:48;101600.87;;;4.62;91.60
48404;BME280;34202;52.536;6.042;2023-03-16T08:31:48;101599.15;;;4.66;91.75
48404;BME280;34202;52.536;6.042;2023-03-16T08:36:49;101595.64;;;4.69;91.64
48404;BME280;34202;52.536;6.042;2023-03-16T08:41:49;101590.75;;;4.72;91.80
48404;BME280;34202;52.536;6.042;2023-03-16T08:46:50;101584.67;;;4.75;92.08
48404;BME280;34202;52.536;6.042;2023-03-16T08:51:50;101586.76;;;4.79;92.33
48404;BME280;34202;52.536;6.042;2023-03-16T08:56:51;101584.64;;;4.82;92.59
48404;BME280;34202;52.536;6.042;2023-03-16T09:01:51;101588.06;;;4.86;92.93
48404;BME280;34202;52.536;6.042;2023-03-16T09:06:52;101590.14;;;4.90;93.18
48404;BME280;34202;52.536;6.042;2023-03-16T09:11:52;101584.56;;;4.93;93.35
48404;BME280;34202;52.536;6.042;2023-03-16T09:16:52;101576.26;;;4.96;93.65
48404;BME280;34202;52.536;6.042;2023-03-16T09:21:53;101570.45;;;5.01;93.98
48404;BME280;34202;52.536;6.042;2023-03-16T09:26:53;101562.91;;;5.07;94.30
48404;BME280;34202;52.536;6.042;2023-03-16T09:31:54;101561.77;;;5.14;94.58
48404;BME280;34202;52.536;6.042;2023-03-16T09:36:55;101558.14;;;5.22;94.89
48404;BME280;34202;52.536;6.042;2023-03-16T09:47:13;101544.06;;;5.41;95.53
48404;BME280;34202;52.536;6.042;2023-03-16T09:52:27;101538.70;;;5.54;95.82
48404;BME280;34202;52.536;6.042;2023-03-16T09:57:41;101536.05;;;5.67;95.87
48404;BME280;34202;52.536;6.042;2023-03-16T10:02:57;101533.86;;;5.77;95.82
48404;BME280;34202;52.536;6.042;2023-03-16T10:08:20;101534.79;;;5.88;95.52
48404;BME280;34202;52.536;6.042;2023-03-16T10:18:44;101527.56;;;6.07;95.32
48404;BME280;34202;52.536;6.042;2023-03-16T10:23:47;101527.52;;;6.15;95.10
48404;BME280;34202;52.536;6.042;2023-03-16T10:28:50;101530.36;;;6.23;94.93
48404;BME280;34202;52.536;6.042;2023-03-16T10:33:57;101526.43;;;6.29;94.67
48404;BME280;34202;52.536;6.042;2023-03-16T10:39:06;101522.28;;;6.34;94.44
48404;BME280;34202;52.536;6.042;2023-03-16T10:44:24;101527.65;;;6.39;94.24
48404;BME280;34202;52.536;6.042;2023-03-16T10:49:34;101515.96;;;6.46;94.17
48404;BME280;34202;52.536;6.042;2023-03-16T10:54:37;101507.96;;;6.55;93.98
48404;BME280;34202;52.536;6.042;2023-03-16T10:59:39;101503.56;;;6.63;93.75
48404;BME280;34202;52.536;6.042;2023-03-16T11:04:39;101503.05;;;6.74;93.47
48404;BME280;34202;52.536;6.042;2023-03-16T11:09:41;101502.48;;;6.88;93.42
48404;BME280;34202;52.536;6.042;2023-03-16T11:14:43;101491.25;;;7.00;93.09
48404;BME280;34202;52.536;6.042;2023-03-16T11:19:51;101491.45;;;7.12;92.94
48404;BME280;34202;52.536;6.042;2023-03-16T11:30:16;101476.33;;;7.44;92.41
48404;BME280;34202;52.536;6.042;2023-03-16T11:35:25;101467.42;;;7.60;91.95
48404;BME280;34202;52.536;6.042;2023-03-16T11:51:10;101454.68;;;8.26;91.11
48404;BME280;34202;52.536;6.042;2023-03-16T11:56:37;101454.20;;;8.41;90.15
48404;BME280;34202;52.536;6.042;2023-03-16T12:17:39;101425.29;;;8.85;87.37
48404;BME280;34202;52.536;6.042;2023-03-16T12:22:44;101422.58;;;8.88;86.57
48404;BME280;34202;52.536;6.042;2023-03-16T12:27:47;101414.02;;;8.94;86.36
48404;BME280;34202;52.536;6.042;2023-03-16T12:32:54;101408.21;;;8.98;85.75
48404;BME280;34202;52.536;6.042;2023-03-16T12:43:30;101387.94;;;9.16;85.23
48404;BME280;34202;52.536;6.042;2023-03-16T12:48:46;101381.59;;;9.28;85.13
48404;BME280;34202;52.536;6.042;2023-03-16T12:53:53;101379.22;;;9.39;84.94
48404;BME280;34202;52.536;6.042;2023-03-16T12:58:56;101374.79;;;9.53;84.89
48404;BME280;34202;52.536;6.042;2023-03-16T13:04:00;101370.92;;;9.69;84.85
48404;BME280;34202;52.536;6.042;2023-03-16T13:09:03;101363.10;;;9.88;84.40
48404;BME280;34202;52.536;6.042;2023-03-16T13:14:07;101352.83;;;9.97;83.40
48404;BME280;34202;52.536;6.042;2023-03-16T13:19:28;101340.46;;;10.05;83.13
48404;BME280;34202;52.536;6.042;2023-03-16T13:24:38;101329.88;;;10.18;82.49
48404;BME280;34202;52.536;6.042;2023-03-16T13:29:39;101317.82;;;10.35;82.42
48404;BME280;34202;52.536;6.042;2023-03-16T13:34:47;101308.63;;;10.49;81.77
48404;BME280;34202;52.536;6.042;2023-03-16T13:39:53;101287.09;;;10.63;81.67
48404;BME280;34202;52.536;6.042;2023-03-16T13:44:56;101273.94;;;10.83;81.11
48404;BME280;34202;52.536;6.042;2023-03-16T13:49:58;101272.02;;;10.96;80.19
48404;BME280;34202;52.536;6.042;2023-03-16T13:55:01;101277.52;;;11.06;79.62
48404;BME280;34202;52.536;6.042;2023-03-16T14:00:19;101295.90;;;11.13;79.04
48404;BME280;34202;52.536;6.042;2023-03-16T14:05:25;101298.40;;;11.18;78.06
48404;BME280;34202;52.536;6.042;2023-03-16T14:10:33;101288.85;;;11.22;77.45
48404;BME280;34202;52.536;6.042;2023-03-16T14:15:36;101275.31;;;11.28;77.00
48404;BME280;34202;52.536;6.042;2023-03-16T14:20:39;101269.64;;;11.34;76.84
48404;BME280;34202;52.536;6.042;2023-03-16T14:25:39;101263.77;;;11.40;76.62
48404;BME280;34202;52.536;6.042;2023-03-16T14:30:50;101256.16;;;11.46;76.18
48404;BME280;34202;52.536;6.042;2023-03-16T14:35:55;101236.69;;;11.50;76.10
48404;BME280;34202;52.536;6.042;2023-03-16T14:40:57;101230.11;;;11.56;75.99
48404;BME280;34202;52.536;6.042;2023-03-16T14:45:59;101232.77;;;11.62;75.77
48404;BME280;34202;52.536;6.042;2023-03-16T14:51:01;101220.98;;;11.67;75.11
48404;BME280;34202;52.536;6.042;2023-03-16T14:56:02;101211.41;;;11.70;74.92
48404;BME280;34202;52.536;6.042;2023-03-16T15:01:03;101203.63;;;11.78;74.64
48404;BME280;34202;52.536;6.042;2023-03-16T15:06:04;101204.57;;;11.87;74.48
48404;BME280;34202;52.536;6.042;2023-03-16T15:11:05;101200.63;;;11.94;74.07
48404;BME280;34202;52.536;6.042;2023-03-16T15:16:10;101190.55;;;11.98;73.58
48404;BME280;34202;52.536;6.042;2023-03-16T15:21:13;101185.34;;;12.03;73.27
48404;BME280;34202;52.536;6.042;2023-03-16T15:26:20;101169.48;;;12.08;73.33
48404;BME280;34202;52.536;6.042;2023-03-16T15:31:22;101160.81;;;12.15;73.42
48404;BME280;34202;52.536;6.042;2023-03-16T15:36:23;101161.89;;;12.20;72.69
48404;BME280;34202;52.536;6.042;2023-03-16T15:41:23;101149.66;;;12.18;72.35
48404;BME280;34202;52.536;6.042;2023-03-16T15:46:26;101154.02;;;12.18;72.26
48404;BME280;34202;52.536;6.042;2023-03-16T15:51:28;101152.96;;;12.17;71.91
48404;BME280;34202;52.536;6.042;2023-03-16T15:56:31;101147.02;;;12.12;71.35
48404;BME280;34202;52.536;6.042;2023-03-16T16:01:45;101146.98;;;12.04;71.03
48404;BME280;34202;52.536;6.042;2023-03-16T16:06:48;101144.15;;;12.00;70.97
48404;BME280;34202;52.536;6.042;2023-03-16T16:11:48;101141.33;;;11.95;70.96
48404;BME280;34202;52.536;6.042;2023-03-16T16:16:50;101144.59;;;11.89;70.88
48404;BME280;34202;52.536;6.042;2023-03-16T16:21:51;101137.54;;;11.81;70.76
48404;BME280;34202;52.536;6.042;2023-03-16T16:26:51;101132.27;;;11.72;70.79
48404;BME280;34202;52.536;6.042;2023-03-16T16:31:52;101125.94;;;11.64;70.96
48404;BME280;34202;52.536;6.042;2023-03-16T16:36:53;101122.55;;;11.55;71.06
48404;BME280;34202;52.536;6.042;2023-03-16T16:41:54;101121.97;;;11.45;71.03
48404;BME280;34202;52.536;6.042;2023-03-16T16:46:55;101119.63;;;11.36;71.06
48404;BME280;34202;52.536;6.042;2023-03-16T16:51:57;101124.80;;;11.29;71.09
48404;BME280;34202;52.536;6.042;2023-03-16T16:56:59;101120.73;;;11.22;71.19
48404;BME280;34202;52.536;6.042;2023-03-16T17:02:02;101119.09;;;11.14;71.20
48404;BME280;34202;52.536;6.042;2023-03-16T17:07:11;101105.61;;;11.06;71.32
48404;BME280;34202;52.536;6.042;2023-03-16T17:12:18;101105.20;;;10.97;71.60
48404;BME280;34202;52.536;6.042;2023-03-16T17:17:20;101102.15;;;10.90;71.78
48404;BME280;34202;52.536;6.042;2023-03-16T17:22:23;101105.39;;;10.82;71.66
48404;BME280;34202;52.536;6.042;2023-03-16T17:27:27;101109.11;;;10.72;71.62
48404;BME280;34202;52.536;6.042;2023-03-16T17:32:28;101111.64;;;10.63;71.84
48404;BME280;34202;52.536;6.042;2023-03-16T17:37:30;101107.02;;;10.56;71.91
48404;BME280;34202;52.536;6.042;2023-03-16T17:42:30;101110.27;;;10.49;72.09
48404;BME280;34202;52.536;6.042;2023-03-16T17:47:30;101105.81;;;10.40;72.28
48404;BME280;34202;52.536;6.042;2023-03-16T17:52:35;101105.38;;;10.33;72.54
48404;BME280;34202;52.536;6.042;2023-03-16T17:57:37;101103.16;;;10.24;72.79
48404;BME280;34202;52.536;6.042;2023-03-16T18:02:50;101102.89;;;10.17;72.95
48404;BME280;34202;52.536;6.042;2023-03-16T18:07:55;101105.23;;;10.11;73.27
48404;BME280;34202;52.536;6.042;2023-03-16T18:13:04;101097.50;;;10.04;73.37
48404;BME280;34202;52.536;6.042;2023-03-16T18:18:05;101089.80;;;9.99;73.67
48404;BME280;34202;52.536;6.042;2023-03-16T18:23:22;101085.71;;;9.93;73.84
48404;BME280;34202;52.536;6.042;2023-03-16T18:28:23;101084.95;;;9.88;73.79
48404;BME280;34202;52.536;6.042;2023-03-16T18:33:26;101074.95;;;9.81;73.74
48404;BME280;34202;52.536;6.042;2023-03-16T18:38:30;101064.94;;;9.73;73.83
48404;BME280;34202;52.536;6.042;2023-03-16T18:43:31;101059.42;;;9.65;73.85
48404;BME280;34202;52.536;6.042;2023-03-16T18:48:33;101058.98;;;9.57;73.78
48404;BME280;34202;52.536;6.042;2023-03-16T18:53:34;101058.67;;;9.49;73.77
48404;BME280;34202;52.536;6.042;2023-03-16T18:58:34;101063.59;;;9.40;73.74
48404;BME280;34202;52.536;6.042;2023-03-16T19:03:39;101068.15;;;9.32;73.86
48404;BME280;34202;52.536;6.042;2023-03-16T19:08:42;101074.30;;;9.26;73.97
48404;BME280;34202;52.536;6.042;2023-03-16T19:13:43;101066.02;;;9.18;73.91
48404;BME280;34202;52.536;6.042;2023-03-16T19:18:44;101056.18;;;9.10;73.97
48404;BME280;34202;52.536;6.042;2023-03-16T19:23:54;101051.04;;;9.03;74.03
48404;BME280;34202;52.536;6.042;2023-03-16T19:28:56;101034.06;;;8.96;74.41
48404;BME280;34202;52.536;6.042;2023-03-16T19:33:57;101023.20;;;8.90;74.29
48404;BME280;34202;52.536;6.042;2023-03-16T19:38:57;101017.23;;;8.86;74.50
48404;BME280;34202;52.536;6.042;2023-03-16T19:49:31;101023.70;;;8.77;74.89
48404;BME280;34202;52.536;6.042;2023-03-16T19:54:31;101017.58;;;8.74;75.05
48404;BME280;34202;52.536;6.042;2023-03-16T19:59:33;101010.92;;;8.71;75.22
48404;BME280;34202;52.536;6.042;2023-03-16T20:04:34;100994.95;;;8.70;75.39
48404;BME280;34202;52.536;6.042;2023-03-16T20:09:34;100992.67;;;8.69;75.42
48404;BME280;34202;52.536;6.042;2023-03-16T20:14:35;100990.38;;;8.67;75.48
48404;BME280;34202;52.536;6.042;2023-03-16T20:19:35;100997.27;;;8.65;75.51
48404;BME280;34202;52.536;6.042;2023-03-16T20:24:35;100994.64;;;8.63;75.72
48404;BME280;34202;52.536;6.042;2023-03-16T20:29:36;100999.27;;;8.59;75.55
48404;BME280;34202;52.536;6.042;2023-03-16T20:34:36;100990.54;;;8.56;75.96
48404;BME280;34202;52.536;6.042;2023-03-16T20:39:37;100988.05;;;8.53;76.09
48404;BME280;34202;52.536;6.042;2023-03-16T20:44:37;100987.14;;;8.51;76.28
48404;BME280;34202;52.536;6.042;2023-03-16T20:49:38;100988.48;;;8.48;76.44
48404;BME280;34202;52.536;6.042;2023-03-16T20:54:38;100992.27;;;8.46;76.69
48404;BME280;34202;52.536;6.042;2023-03-16T20:59:38;100983.52;;;8.42;76.55
48404;BME280;34202;52.536;6.042;2023-03-16T21:04:39;100971.81;;;8.39;76.81
48404;BME280;34202;52.536;6.042;2023-03-16T21:09:41;100977.48;;;8.36;77.17
48404;BME280;34202;52.536;6.042;2023-03-16T21:14:42;100979.14;;;8.31;77.08
48404;BME280;34202;52.536;6.042;2023-03-16T21:19:42;100973.70;;;8.28;77.38
48404;BME280;34202;52.536;6.042;2023-03-16T21:24:43;100967.02;;;8.22;77.36
48404;BME280;34202;52.536;6.042;2023-03-16T21:29:43;100974.19;;;8.17;77.75
48404;BME280;34202;52.536;6.042;2023-03-16T21:34:43;100968.73;;;8.11;78.01
48404;BME280;34202;52.536;6.042;2023-03-16T21:39:45;100955.81;;;8.07;78.14
48404;BME280;34202;52.536;6.042;2023-03-16T21:44:47;100946.89;;;8.02;78.36
48404;BME280;34202;52.536;6.042;2023-03-16T21:49:47;100945.21;;;7.97;78.43
48404;BME280;34202;52.536;6.042;2023-03-16T21:54:50;100948.77;;;7.92;78.48
48404;BME280;34202;52.536;6.042;2023-03-16T21:59:51;100947.98;;;7.88;79.08
48404;BME280;34202;52.536;6.042;2023-03-16T22:04:51;100940.46;;;7.84;79.23
48404;BME280;34202;52.536;6.042;2023-03-16T22:09:52;100935.00;;;7.79;79.35
48404;BME280;34202;52.536;6.042;2023-03-16T22:14:52;100934.39;;;7.75;79.28
48404;BME280;34202;52.536;6.042;2023-03-16T22:19:55;100932.92;;;7.71;79.67
48404;BME280;34202;52.536;6.042;2023-03-16T22:24:56;100936.48;;;7.66;79.65
48404;BME280;34202;52.536;6.042;2023-03-16T22:29:57;100946.27;;;7.62;79.93
48404;BME280;34202;52.536;6.042;2023-03-16T22:34:57;100946.52;;;7.58;80.14
48404;BME280;34202;52.536;6.042;2023-03-16T22:40:00;100942.11;;;7.53;80.31
48404;BME280;34202;52.536;6.042;2023-03-16T22:45:01;100927.31;;;7.50;80.38
48404;BME280;34202;52.536;6.042;2023-03-16T22:50:01;100909.76;;;7.46;80.50
48404;BME280;34202;52.536;6.042;2023-03-16T22:55:03;100917.48;;;7.42;80.33
48404;BME280;34202;52.536;6.042;2023-03-16T23:00:05;100927.75;;;7.38;80.63
48404;BME280;34202;52.536;6.042;2023-03-16T23:05:16;100931.98;;;7.33;80.61
48404;BME280;34202;52.536;6.042;2023-03-16T23:10:21;100928.25;;;7.29;80.85
48404;BME280;34202;52.536;6.042;2023-03-16T23:15:24;100925.93;;;7.25;80.92
48404;BME280;34202;52.536;6.042;2023-03-16T23:20:30;100920.98;;;7.21;81.02
48404;BME280;34202;52.536;6.042;2023-03-16T23:25:31;100917.48;;;7.19;81.14
48404;BME280;34202;52.536;6.042;2023-03-16T23:30:32;100909.30;;;7.17;81.17
48404;BME280;34202;52.536;6.042;2023-03-16T23:35:33;100914.17;;;7.18;81.42
48404;BME280;34202;52.536;6.042;2023-03-16T23:40:35;100916.61;;;7.18;81.28
48404;BME280;34202;52.536;6.042;2023-03-16T23:45:40;100916.79;;;7.19;81.37
48404;BME280;34202;52.536;6.042;2023-03-16T23:50:42;100918.89;;;7.21;81.39
48404;BME280;34202;52.536;6.042;2023-03-16T23:55:43;100920.81;;;7.21;81.16
